createdAt,value
2018-01-17T00:02:25.690Z,24.20
2018-01-17T00:04:53.229Z,22.43
2018-01-17T00:07:20.810Z,18.37
2018-01-17T00:09:49.035Z,21.87
2018-01-17T00:12:16.566Z,21.60
2018-01-17T00:14:44.169Z,19.33
2018-01-17T00:17:11.780Z,22.57
2018-01-17T00:19:39.384Z,21.53
2018-01-17T00:22:06.914Z,19.83
2018-01-17T00:24:34.492Z,18.90
2018-01-17T00:27:02.060Z,21.07
2018-01-17T00:29:29.598Z,20.27
2018-01-17T00:31:57.141Z,20.47
2018-01-17T00:34:24.684Z,20.93
2018-01-17T00:36:52.286Z,20.90
2018-01-17T00:39:19.822Z,20.10
2018-01-17T00:41:47.462Z,21.67
2018-01-17T00:44:14.998Z,22.67
2018-01-17T00:46:42.534Z,21.90
2018-01-17T00:49:10.139Z,21.37
2018-01-17T00:51:37.689Z,21.53
2018-01-17T00:54:05.265Z,22.90
2018-01-17T00:56:32.802Z,21.20
2018-01-17T00:59:00.337Z,22.57
2018-01-17T01:01:27.882Z,25.50
2018-01-17T01:03:55.480Z,22.80
2018-01-17T01:06:23.058Z,22.87
2018-01-17T01:08:50.595Z,23.10
2018-01-17T01:11:18.128Z,27.40
2018-01-17T01:13:45.670Z,27.10
2018-01-17T01:16:13.206Z,23.97
2018-01-17T01:18:40.810Z,27.17
2018-01-17T01:21:08.353Z,24.80
2018-01-17T01:23:36.003Z,26.00
2018-01-17T01:26:03.599Z,28.40
2018-01-17T01:28:31.134Z,26.30
2018-01-17T01:30:58.674Z,28.10
2018-01-17T01:33:26.274Z,29.03
2018-01-17T01:35:53.814Z,27.93
2018-01-17T01:38:21.356Z,28.00
2018-01-17T01:40:48.942Z,28.67
2018-01-17T01:43:16.474Z,25.80
2018-01-17T01:45:44.069Z,29.33
2018-01-17T01:48:11.609Z,24.80
2018-01-17T01:50:39.202Z,30.40
2018-01-17T01:53:06.758Z,28.80
2018-01-17T01:55:34.292Z,29.20
2018-01-17T01:58:01.874Z,28.17
2018-01-17T02:00:29.410Z,28.90
2018-01-17T02:02:57.007Z,29.60
2018-01-17T02:05:24.566Z,29.90
2018-01-17T02:07:52.098Z,28.37
2018-01-17T02:10:19.646Z,29.30
2018-01-17T02:12:47.229Z,26.40
2018-01-17T02:15:14.810Z,27.60
2018-01-17T02:17:42.342Z,28.90
2018-01-17T02:20:09.997Z,32.27
2018-01-17T02:22:37.546Z,35.47
2018-01-17T02:25:05.081Z,34.53
2018-01-17T02:27:32.695Z,33.70
2018-01-17T02:30:00.235Z,33.07
2018-01-17T02:32:27.813Z,34.50
2018-01-17T02:34:55.351Z,31.83
2018-01-17T02:37:22.951Z,30.57
2018-01-17T02:40:02.195Z,28.17
2018-01-17T02:42:29.735Z,28.13
2018-01-17T02:44:57.282Z,29.67
2018-01-17T02:47:24.887Z,29.90
2018-01-17T02:49:52.430Z,29.70
2018-01-17T02:52:19.974Z,28.37
2018-01-17T02:54:48.833Z,30.37
2018-01-17T02:57:16.438Z,30.43
2018-01-17T02:59:45.751Z,28.93
2018-01-17T03:02:13.342Z,30.60
2018-01-17T03:04:40.882Z,35.87
2018-01-17T03:07:08.482Z,32.53
2018-01-17T03:09:36.038Z,34.73
2018-01-17T03:12:03.647Z,45.20
2018-01-17T03:14:31.194Z,36.20
2018-01-17T03:16:58.793Z,37.73
2018-01-17T03:19:26.374Z,28.67
2018-01-17T03:21:53.971Z,29.03
2018-01-17T03:24:21.567Z,29.40
2018-01-17T03:26:49.170Z,26.83
2018-01-17T03:29:16.717Z,28.30
2018-01-17T03:31:44.326Z,28.03
2018-01-17T03:34:11.867Z,27.60
2018-01-17T03:36:39.503Z,26.27
2018-01-17T03:39:07.042Z,31.80
2018-01-17T03:41:34.574Z,32.70
2018-01-17T03:44:02.131Z,29.50
2018-01-17T03:46:29.665Z,29.87
2018-01-17T03:48:57.270Z,31.77
2018-01-17T03:51:24.805Z,29.83
2018-01-17T03:53:52.487Z,28.63
2018-01-17T03:56:20.026Z,27.37
2018-01-17T03:58:47.626Z,27.80
2018-01-17T04:01:15.175Z,26.80
2018-01-17T04:03:42.705Z,26.87
2018-01-17T04:06:10.259Z,27.77
2018-01-17T04:08:37.797Z,29.00
2018-01-17T04:11:05.379Z,29.77
2018-01-17T04:13:32.930Z,35.47
2018-01-17T04:16:00.522Z,36.60
2018-01-17T04:18:28.123Z,33.40
2018-01-17T04:20:55.719Z,32.30
2018-01-17T04:23:23.278Z,28.20
2018-01-17T04:25:51.057Z,36.20
2018-01-17T04:28:18.666Z,40.17
2018-01-17T04:30:46.263Z,33.50
2018-01-17T04:33:13.797Z,31.47
2018-01-17T04:35:41.402Z,33.50
2018-01-17T04:38:08.942Z,33.70
2018-01-17T04:40:36.481Z,35.00
2018-01-17T04:43:04.111Z,34.57
2018-01-17T04:45:31.693Z,29.40
2018-01-17T04:47:59.290Z,32.73
2018-01-17T04:50:26.834Z,64.47
2018-01-17T04:52:54.441Z,47.63
2018-01-17T04:55:22.038Z,45.93
2018-01-17T04:57:49.643Z,46.53
2018-01-17T05:00:17.226Z,45.43
2018-01-17T05:02:44.809Z,47.47
2018-01-17T05:05:12.451Z,54.73
2018-01-17T05:07:39.998Z,51.53
2018-01-17T05:10:07.548Z,52.60
2018-01-17T05:12:35.085Z,57.47
2018-01-17T05:15:02.712Z,63.10
2018-01-17T05:17:30.254Z,55.50
2018-01-17T05:19:57.846Z,58.77
2018-01-17T05:22:25.386Z,58.27
2018-01-17T05:24:53.094Z,61.77
2018-01-17T05:27:20.707Z,61.20
2018-01-17T05:29:48.246Z,67.20
2018-01-17T05:32:15.850Z,66.77
2018-01-17T05:34:43.394Z,69.93
2018-01-17T05:37:11.038Z,64.20
2018-01-17T05:39:38.574Z,70.07
2018-01-17T05:42:06.184Z,70.80
2018-01-17T05:44:33.754Z,72.73
2018-01-17T05:47:01.294Z,80.10
2018-01-17T05:49:28.851Z,81.60
2018-01-17T05:51:56.454Z,71.20
2018-01-17T05:54:24.102Z,69.47
2018-01-17T05:56:51.698Z,70.97
2018-01-17T05:59:19.238Z,62.87
2018-01-17T06:01:46.790Z,76.90
2018-01-17T06:04:14.331Z,83.80
2018-01-17T06:06:41.870Z,87.70
2018-01-17T06:09:09.410Z,84.93
2018-01-17T06:11:36.994Z,74.90
2018-01-17T06:14:04.540Z,72.03
2018-01-17T06:16:32.081Z,68.10
2018-01-17T06:18:59.693Z,66.50
2018-01-17T06:21:27.298Z,64.67
2018-01-17T06:23:54.906Z,66.07
2018-01-17T06:26:22.442Z,76.73
2018-01-17T06:28:50.029Z,74.30
2018-01-17T06:31:17.630Z,90.20
2018-01-17T06:33:45.174Z,91.20
2018-01-17T06:36:12.722Z,87.93
2018-01-17T06:38:40.331Z,89.03
2018-01-17T06:41:07.942Z,79.60
2018-01-17T06:43:35.481Z,63.37
2018-01-17T06:46:03.127Z,55.83
2018-01-17T06:48:30.724Z,66.60
2018-01-17T06:50:58.330Z,72.90
2018-01-17T06:53:25.873Z,68.90
2018-01-17T06:55:53.454Z,56.57
2018-01-17T06:58:21.062Z,60.20
2018-01-17T07:00:48.606Z,59.70
2018-01-17T07:03:16.257Z,59.10
2018-01-17T07:05:43.799Z,60.70
2018-01-17T07:08:11.337Z,60.90
2018-01-17T07:10:38.982Z,61.20
2018-01-17T07:13:06.631Z,58.53
2018-01-17T07:15:34.278Z,60.70
2018-01-17T07:18:01.823Z,58.57
2018-01-17T07:20:29.450Z,57.80
2018-01-17T07:22:56.998Z,64.30
2018-01-17T07:25:24.533Z,64.63
2018-01-17T07:27:52.137Z,65.30
2018-01-17T07:30:19.735Z,66.70
2018-01-17T07:32:47.322Z,56.90
2018-01-17T07:35:14.974Z,46.63
2018-01-17T07:37:42.506Z,59.90
2018-01-17T07:40:10.051Z,46.83
2018-01-17T07:42:37.646Z,47.90
2018-01-17T07:45:05.311Z,50.10
2018-01-17T07:47:32.846Z,51.43
2018-01-17T07:50:00.441Z,45.00
2018-01-17T07:52:27.985Z,41.40
2018-01-17T07:54:55.557Z,44.10
2018-01-17T07:57:23.102Z,42.27
2018-01-17T07:59:50.692Z,37.33
2018-01-17T08:02:18.331Z,37.83
2018-01-17T08:04:45.873Z,29.20
2018-01-17T08:07:13.467Z,32.00
2018-01-17T08:09:41.079Z,29.77
2018-01-17T08:12:08.611Z,34.07
2018-01-17T08:14:36.154Z,30.77
2018-01-17T08:17:03.687Z,28.10
2018-01-17T08:19:31.297Z,26.47
2018-01-17T08:21:58.899Z,29.70
2018-01-17T08:24:26.440Z,31.37
2018-01-17T08:26:54.046Z,35.47
2018-01-17T08:29:21.587Z,39.30
2018-01-17T08:31:49.185Z,35.80
2018-01-17T08:34:16.734Z,30.77
2018-01-17T08:36:44.371Z,29.37
2018-01-17T08:39:11.903Z,31.40
2018-01-17T08:41:39.498Z,32.63
2018-01-17T08:44:07.419Z,30.97
2018-01-17T08:46:34.949Z,34.47
2018-01-17T08:49:02.587Z,35.70
2018-01-17T08:51:30.130Z,33.57
2018-01-17T08:53:57.667Z,35.13
2018-01-17T08:56:25.211Z,32.47
2018-01-17T08:58:52.830Z,29.90
2018-01-17T09:01:20.483Z,30.57
2018-01-17T09:03:48.094Z,31.97
2018-01-17T09:06:15.629Z,26.90
2018-01-17T09:08:43.190Z,26.70
2018-01-17T09:11:10.725Z,25.03
2018-01-17T09:13:38.370Z,25.37
2018-01-17T09:16:05.965Z,27.77
2018-01-17T09:18:33.506Z,24.13
2018-01-17T09:21:01.114Z,26.83
2018-01-17T09:23:28.650Z,27.23
2018-01-17T09:25:56.286Z,25.57
2018-01-17T09:28:23.827Z,21.50
2018-01-17T09:30:51.361Z,21.50
2018-01-17T09:33:18.898Z,20.73
2018-01-17T09:35:46.430Z,23.40
2018-01-17T09:38:14.070Z,22.50
2018-01-17T09:40:41.612Z,20.70
2018-01-17T09:43:09.231Z,19.50
2018-01-17T09:45:36.791Z,21.10
2018-01-17T09:48:04.396Z,22.90
2018-01-17T09:50:32.047Z,32.40
2018-01-17T09:52:59.644Z,27.60
2018-01-17T09:55:27.183Z,22.90
2018-01-17T09:57:54.792Z,17.90
2018-01-17T10:00:22.331Z,19.33
2018-01-17T10:02:49.922Z,18.83
2018-01-17T10:05:17.474Z,28.63
2018-01-17T10:07:45.010Z,37.23
2018-01-17T10:10:12.626Z,22.60
2018-01-17T10:12:40.167Z,20.90
2018-01-17T10:15:07.782Z,18.47
2018-01-17T10:17:35.339Z,20.07
2018-01-17T10:20:02.960Z,17.30
2018-01-17T10:22:30.520Z,19.23
2018-01-17T10:24:58.072Z,18.53
2018-01-17T10:27:25.694Z,18.30
2018-01-17T10:29:53.308Z,17.30
2018-01-17T10:32:20.911Z,15.67
2018-01-17T10:34:48.533Z,11.17
2018-01-17T10:37:16.070Z,11.00
2018-01-17T10:39:43.678Z,6.60
2018-01-17T10:42:11.206Z,5.07
2018-01-17T10:44:38.795Z,5.60
2018-01-17T10:47:06.395Z,4.27
2018-01-17T10:49:33.991Z,4.57
2018-01-17T10:52:01.621Z,5.43
2018-01-17T10:54:29.211Z,4.07
2018-01-17T10:56:56.804Z,3.00
2018-01-17T10:59:24.342Z,2.93
2018-01-17T11:01:51.914Z,3.03
2018-01-17T11:04:19.555Z,3.43
2018-01-17T11:06:47.090Z,3.00
2018-01-17T11:09:14.680Z,4.10
2018-01-17T11:11:42.222Z,4.50
2018-01-17T11:14:09.754Z,3.20
2018-01-17T11:16:37.391Z,3.80
2018-01-17T11:19:04.987Z,2.33
2018-01-17T11:21:32.515Z,3.30
2018-01-17T11:24:00.055Z,4.47
2018-01-17T11:26:27.593Z,4.40
2018-01-17T11:28:55.178Z,5.00
2018-01-17T11:31:22.725Z,3.10
2018-01-17T11:33:50.274Z,3.57
2018-01-17T11:36:17.876Z,3.80
2018-01-17T11:38:45.411Z,3.57
2018-01-17T11:41:12.987Z,2.53
2018-01-17T11:43:40.530Z,4.50
2018-01-17T11:46:08.078Z,2.80
2018-01-17T11:48:35.614Z,3.90
2018-01-17T11:51:03.204Z,3.73
2018-01-17T11:53:30.786Z,4.00
2018-01-17T11:55:58.383Z,3.80
2018-01-17T11:58:25.915Z,3.60
2018-01-17T12:00:53.468Z,4.40
2018-01-17T12:03:20.993Z,5.30
2018-01-17T12:05:48.588Z,71.97
2018-01-17T12:08:16.136Z,13.10
2018-01-17T12:10:43.676Z,15.73
2018-01-17T12:13:11.279Z,7.20
2018-01-17T12:15:38.871Z,4.07
2018-01-17T12:18:06.445Z,4.10
2018-01-17T12:20:34.006Z,5.03
2018-01-17T12:23:01.535Z,4.37
2018-01-17T12:25:29.171Z,7.10
2018-01-17T12:27:56.766Z,5.60
2018-01-17T12:30:24.430Z,6.57
2018-01-17T12:32:51.969Z,7.70
2018-01-17T12:35:19.568Z,10.63
2018-01-17T12:37:47.114Z,8.40
2018-01-17T12:40:14.646Z,8.83
2018-01-17T12:42:42.262Z,9.60
2018-01-17T12:45:09.798Z,9.97
2018-01-17T12:47:37.342Z,11.30
2018-01-17T12:50:04.892Z,13.27
2018-01-17T12:52:32.509Z,15.27
2018-01-17T12:55:00.142Z,12.40
2018-01-17T12:57:27.682Z,13.23
2018-01-17T12:59:55.218Z,8.70
2018-01-17T13:02:22.820Z,6.23
2018-01-17T13:04:50.406Z,5.73
2018-01-17T13:07:18.007Z,4.90
2018-01-17T13:09:45.537Z,5.70
2018-01-17T13:12:13.117Z,5.47
2018-01-17T13:14:40.723Z,4.97
2018-01-17T13:17:08.261Z,6.10
2018-01-17T13:19:35.866Z,7.30
2018-01-17T13:22:03.454Z,12.30
2018-01-17T13:24:31.070Z,9.30
2018-01-17T13:26:58.618Z,12.40
2018-01-17T13:29:26.206Z,4.67
2018-01-17T13:31:53.790Z,5.70
2018-01-17T13:34:21.388Z,6.20
2018-01-17T13:36:48.942Z,7.20
2018-01-17T13:39:16.495Z,6.10
2018-01-17T13:41:44.090Z,5.57
2018-01-17T13:44:11.730Z,9.03
2018-01-17T13:46:39.287Z,8.77
2018-01-17T13:49:06.898Z,5.83
2018-01-17T13:51:34.454Z,7.43
2018-01-17T13:54:02.047Z,5.17
2018-01-17T13:56:29.686Z,5.33
2018-01-17T13:58:57.233Z,5.33
2018-01-17T14:01:24.839Z,6.10
2018-01-17T14:03:52.402Z,9.00
2018-01-17T14:06:19.934Z,6.93
2018-01-17T14:08:47.597Z,6.03
2018-01-17T14:11:15.150Z,7.03
2018-01-17T14:13:42.677Z,6.90
2018-01-17T14:16:10.214Z,9.20
2018-01-17T14:18:37.806Z,7.97
2018-01-17T14:21:05.386Z,8.03
2018-01-17T14:23:32.930Z,9.00
2018-01-17T14:26:00.486Z,9.50
2018-01-17T14:28:28.133Z,9.43
2018-01-17T14:30:55.690Z,12.63
2018-01-17T14:33:23.277Z,8.30
2018-01-17T14:35:50.817Z,7.40
2018-01-17T14:38:18.358Z,7.50
2018-01-17T14:40:45.901Z,7.20
2018-01-17T14:43:16.450Z,8.10
2018-01-17T14:45:44.111Z,6.83
2018-01-17T14:48:11.651Z,6.53
2018-01-17T14:50:39.182Z,9.47
2018-01-17T14:53:06.734Z,7.07
2018-01-17T14:55:34.360Z,11.60
2018-01-17T14:58:02.006Z,13.00
2018-01-17T15:00:29.607Z,10.17
2018-01-17T15:02:57.202Z,6.47
2018-01-17T15:05:24.802Z,8.53
2018-01-17T15:07:52.346Z,11.20
2018-01-17T15:10:19.927Z,11.00
2018-01-17T15:12:47.463Z,8.43
2018-01-17T15:15:14.997Z,7.40
2018-01-17T15:17:42.587Z,12.70
2018-01-17T15:20:10.154Z,5.70
2018-01-17T15:22:37.774Z,7.80
2018-01-17T15:25:05.406Z,7.57
2018-01-17T15:27:32.991Z,6.90
2018-01-17T15:30:00.581Z,7.90
2018-01-17T15:32:28.234Z,7.83
2018-01-17T15:34:55.870Z,9.40
2018-01-17T15:37:24.331Z,9.60
2018-01-17T15:39:51.890Z,10.50
2018-01-17T15:42:19.434Z,9.90
2018-01-17T15:44:47.030Z,8.90
2018-01-17T15:47:14.610Z,9.50
2018-01-17T15:49:42.205Z,11.07
2018-01-17T15:52:09.820Z,18.67
2018-01-17T15:54:37.432Z,9.80
2018-01-17T15:57:05.035Z,9.97
2018-01-17T15:59:32.615Z,8.03
2018-01-17T16:02:00.222Z,10.10
2018-01-17T16:04:27.762Z,10.80
2018-01-17T16:06:55.424Z,10.07
2018-01-17T16:09:22.962Z,9.43
2018-01-17T16:11:50.538Z,8.97
2018-01-17T16:14:18.129Z,7.50
2018-01-17T16:16:45.662Z,6.20
2018-01-17T16:19:13.212Z,7.00
2018-01-17T16:21:40.743Z,8.33
2018-01-17T16:24:08.321Z,8.57
2018-01-17T16:26:35.919Z,8.57
2018-01-17T16:29:03.518Z,9.23
2018-01-17T16:31:31.062Z,11.47
2018-01-17T16:33:58.598Z,9.87
2018-01-17T16:36:26.197Z,9.50
2018-01-17T16:38:53.798Z,8.80
2018-01-17T16:41:21.390Z,7.93
2018-01-17T16:43:48.929Z,7.53
2018-01-17T16:46:16.470Z,8.60
2018-01-17T16:48:44.079Z,7.43
2018-01-17T16:51:11.677Z,7.03
2018-01-17T16:53:39.214Z,7.23
2018-01-17T16:56:06.922Z,6.73
2018-01-17T16:58:34.462Z,7.97
2018-01-17T17:01:02.056Z,9.73
2018-01-17T17:03:29.614Z,15.83
2018-01-17T17:05:57.150Z,16.50
2018-01-17T17:08:24.754Z,13.43
2018-01-17T17:10:52.315Z,220.57
2018-01-17T17:13:20.025Z,17.87
2018-01-17T17:15:47.634Z,11.27
2018-01-17T17:18:15.165Z,9.77
2018-01-17T17:20:42.771Z,12.13
2018-01-17T17:23:10.310Z,8.93
2018-01-17T17:25:37.950Z,8.60
2018-01-17T17:28:05.501Z,8.90
2018-01-17T17:30:33.054Z,7.73
2018-01-17T17:33:00.655Z,7.70
2018-01-17T17:35:28.244Z,6.30
2018-01-17T17:37:55.782Z,9.10
2018-01-17T17:40:23.322Z,8.90
2018-01-17T17:42:50.926Z,9.77
2018-01-17T17:45:18.463Z,8.10
2018-01-17T17:47:46.064Z,8.50
2018-01-17T17:50:13.662Z,7.93
2018-01-17T17:52:41.261Z,7.13
2018-01-17T17:55:08.890Z,6.70
2018-01-17T17:57:36.432Z,7.03
2018-01-17T18:00:04.085Z,6.67
2018-01-17T18:02:31.739Z,6.03
2018-01-17T18:04:59.358Z,6.60
2018-01-17T18:07:26.962Z,5.37
2018-01-17T18:09:54.518Z,7.73
2018-01-17T18:12:22.122Z,6.97
2018-01-17T18:14:49.723Z,7.00
2018-01-17T18:17:17.303Z,10.67
2018-01-17T18:19:44.903Z,7.47
2018-01-17T18:22:12.511Z,10.20
2018-01-17T18:24:40.127Z,9.60
2018-01-17T18:27:07.671Z,8.40
2018-01-17T18:29:35.286Z,8.50
2018-01-17T18:32:02.826Z,8.73
2018-01-17T18:34:30.410Z,7.23
2018-01-17T18:36:57.983Z,8.80
2018-01-17T18:39:25.514Z,7.63
2018-01-17T18:41:53.066Z,7.93
2018-01-17T18:44:20.602Z,8.03
2018-01-17T18:46:48.229Z,8.60
2018-01-17T18:49:15.830Z,6.67
2018-01-17T18:51:43.443Z,10.60
2018-01-17T18:54:11.039Z,6.87
2018-01-17T18:56:38.575Z,10.10
2018-01-17T18:59:06.126Z,7.87
2018-01-17T19:01:33.670Z,7.33
2018-01-17T19:04:01.239Z,9.03
2018-01-17T19:06:28.786Z,9.00
2018-01-17T19:08:56.414Z,9.03
2018-01-17T19:11:23.954Z,11.23
2018-01-17T19:13:51.501Z,13.67
2018-01-17T19:16:19.107Z,14.50
2018-01-17T19:18:46.650Z,12.17
2018-01-17T19:21:14.201Z,18.50
2018-01-17T19:23:41.731Z,25.63
2018-01-17T19:26:09.311Z,26.60
2018-01-17T19:28:36.843Z,26.80
2018-01-17T19:31:04.470Z,26.47
2018-01-17T19:33:32.010Z,28.50
2018-01-17T19:35:59.547Z,32.20
2018-01-17T19:38:27.090Z,35.20
2018-01-17T19:40:54.683Z,36.57
2018-01-17T19:43:22.331Z,32.47
2018-01-17T19:45:49.857Z,31.37
2018-01-17T19:48:18.318Z,34.30
2018-01-17T19:50:45.926Z,38.37
2018-01-17T19:53:13.461Z,38.37
2018-01-17T19:55:41.127Z,37.90
2018-01-17T19:58:08.718Z,35.30
2018-01-17T20:00:36.327Z,31.43
2018-01-17T20:03:03.857Z,35.00
2018-01-17T20:05:31.385Z,31.37
2018-01-17T20:07:58.922Z,32.33
2018-01-17T20:10:26.515Z,31.60
2018-01-17T20:12:54.060Z,35.70
2018-01-17T20:15:21.593Z,32.87
2018-01-17T20:17:49.266Z,26.60
2018-01-17T20:20:16.800Z,24.87
2018-01-17T20:22:49.849Z,34.63
2018-01-17T20:25:17.442Z,29.30
2018-01-17T20:27:45.038Z,26.17
2018-01-17T20:30:12.573Z,20.63
2018-01-17T20:32:40.102Z,17.23
2018-01-17T20:35:07.646Z,17.10
2018-01-17T20:37:35.190Z,23.77
2018-01-17T20:40:02.810Z,17.43
2018-01-17T20:42:30.430Z,13.47
2018-01-17T20:44:58.009Z,11.77
2018-01-17T20:47:25.646Z,18.47
2018-01-17T20:49:53.177Z,11.77
2018-01-17T20:52:20.714Z,15.47
2018-01-17T20:54:48.251Z,25.33
2018-01-17T20:57:15.841Z,19.37
2018-01-17T20:59:43.470Z,14.73
2018-01-17T21:02:11.010Z,24.60
2018-01-17T21:04:38.614Z,18.87
2018-01-17T21:07:06.146Z,14.27
2018-01-17T21:09:33.689Z,13.10
2018-01-17T21:12:01.278Z,8.53
2018-01-17T21:14:28.867Z,6.03
2018-01-17T21:16:56.426Z,7.03
2018-01-17T21:19:23.954Z,5.10
2018-01-17T21:21:51.491Z,6.57
2018-01-17T21:24:19.021Z,4.43
2018-01-17T21:26:46.556Z,4.90
2018-01-17T21:29:14.088Z,5.10
2018-01-17T21:31:41.743Z,5.73
2018-01-17T21:34:09.345Z,5.07
2018-01-17T21:36:36.882Z,5.53
2018-01-17T21:39:04.505Z,5.40
2018-01-17T21:41:32.112Z,5.40
2018-01-17T21:44:05.332Z,5.67
2018-01-17T21:46:32.906Z,5.10
2018-01-17T21:49:00.440Z,4.40
2018-01-17T21:51:27.970Z,5.20
2018-01-17T21:53:55.565Z,4.30
2018-01-17T21:56:23.230Z,5.70
2018-01-17T21:58:50.758Z,4.80
2018-01-17T22:01:18.293Z,3.97
2018-01-17T22:03:45.821Z,3.63
2018-01-17T22:06:13.395Z,3.40
2018-01-17T22:08:40.922Z,3.50
2018-01-17T22:11:08.446Z,3.63
2018-01-17T22:13:36.042Z,2.47
2018-01-17T22:16:03.622Z,3.77
2018-01-17T22:18:31.197Z,3.83
2018-01-17T22:20:58.718Z,3.57
2018-01-17T22:23:26.300Z,2.70
2018-01-17T22:25:53.899Z,2.40
2018-01-17T22:28:21.482Z,3.00
2018-01-17T22:30:49.015Z,3.70
2018-01-17T22:33:16.546Z,2.37
2018-01-17T22:35:44.113Z,1.60
2018-01-17T22:38:11.637Z,1.87
2018-01-17T22:40:39.226Z,1.50
2018-01-17T22:43:06.762Z,2.37
2018-01-17T22:45:34.285Z,2.40
2018-01-17T22:48:01.874Z,1.30
2018-01-17T22:50:29.401Z,2.27
2018-01-17T22:52:56.970Z,1.73
2018-01-17T22:55:24.550Z,1.97
2018-01-17T22:57:52.072Z,1.57
2018-01-17T23:00:20.527Z,2.07
2018-01-17T23:02:48.126Z,1.40
2018-01-17T23:05:15.715Z,2.20
2018-01-17T23:07:43.233Z,2.27
2018-01-17T23:10:10.865Z,1.67
2018-01-17T23:12:38.446Z,1.63
2018-01-17T23:15:05.972Z,1.60
2018-01-17T23:17:33.503Z,1.60
2018-01-17T23:20:01.026Z,1.90
2018-01-17T23:22:28.623Z,2.13
2018-01-17T23:24:56.151Z,1.57
2018-01-17T23:27:23.810Z,1.83
2018-01-17T23:29:51.334Z,1.70
2018-01-17T23:32:18.861Z,2.27
2018-01-17T23:34:46.398Z,1.70
2018-01-17T23:37:13.983Z,2.17
2018-01-17T23:39:41.509Z,1.90
2018-01-17T23:42:09.042Z,2.03
2018-01-17T23:44:36.613Z,2.10
2018-01-17T23:47:04.139Z,2.40
2018-01-17T23:49:31.727Z,2.63
2018-01-17T23:51:59.301Z,2.30
2018-01-17T23:54:26.825Z,2.03
2018-01-17T23:56:54.357Z,2.83
2018-01-17T23:59:22.020Z,1.90
